Etusivu
METAR-TAF:

METAR-TAF

Lentoasemat :

Iași, Romania

Leveyspiiri: 47-10N, Pituuspiiri: 027-38E, korkeus merenpinnasta: 102 m

Tämänhetkinen sää

Tämä raportti tehtiin 31 minuuttia sitten, kello 16.30 UTC
Tuuli 9 kn luoteesta
Lämpötila 14°C
Kosteus 77%
Ilmanpaine 1011 hPa
Näkyvyys 10 km tai enemmän
Hajonneita pilviä 2500 ft:n korkeudessa

METAR: LRIA 291630Z 31009KT 9999 BKN025 14/10 Q1011 R14/29//95

Aika: 20:01 (17:01 UTC)

Sääennuste

Tämä raportti tehtiin 3 tuntia ja 1 minuuttia sitten, kello 14.00 UTC
Ennuste voimassa 29. päivästä klo 15 UTC - 30. päivään klo 00 UTC
Tuuli 15 kn luoteesta
Näkyvyys 10 km tai enemmän
Hajonneita pilviä 3500 ft:n korkeudessa
Todennäköisyys 30% :
Ajoittain
29. päivästä klo 15 UTC - 29. päivään klo 17 UTC
Näkyvyys: 5000 m
Hajonneita pilviä 1500 ft:n korkeudessa
Hajanaisia pilviä 3000 ft:n korkeudessa, Cumulonimbus.
ukkosmyrsky, sadetta

TAF: LRIA 291400Z 2915/3000 32015KT 9999 BKN035 PROB30 TEMPO 2915/2917 5000 TSRA BKN015 SCT030CB

Säähavainnot ja -ennusteet yli 4000 lentoasemalta (METAR- ja TAF-raportit).

Käytössä olevat sääasemat on merkitty karttaan keltaisilla ja punaisilla pisteillä.

Aseta hiiri pisteen päälle nähdäksesi sääaseman nimen.

Klikkaa sitten nähdäksesi säähavainnot ja -ennusteet.

Kartan vaihtaminen: klikkaa mustalla rastilla varustettuja vihreitä pisteitä, niin voit zoomata sisään; viivalla varustettua vihreää pistettä, niin voit zoomata ulos tai vihreitä nuolia, niin pääset viereisille kartoille.


METAR-TAF: